sensor_id;sensor_type;location;lat;lon;timestamp;P1;durP1;ratioP1;P2;durP2;ratioP2
1446;SDS011;717;51.522;7.266;2023-09-19T00:00:57;4.80;;;1.63;;
1446;SDS011;717;51.522;7.266;2023-09-19T00:03:27;4.28;;;1.83;;
1446;SDS011;717;51.522;7.266;2023-09-19T00:05:58;4.68;;;1.48;;
1446;SDS011;717;51.522;7.266;2023-09-19T00:08:28;5.38;;;1.70;;
1446;SDS011;717;51.522;7.266;2023-09-19T00:11:02;4.45;;;1.25;;
1446;SDS011;717;51.522;7.266;2023-09-19T00:13:32;4.43;;;1.70;;
1446;SDS011;717;51.522;7.266;2023-09-19T00:16:07;4.50;;;1.50;;
1446;SDS011;717;51.522;7.266;2023-09-19T00:18:41;5.80;;;1.60;;
1446;SDS011;717;51.522;7.266;2023-09-19T00:21:11;5.28;;;1.52;;
1446;SDS011;717;51.522;7.266;2023-09-19T00:23:41;3.92;;;1.23;;
1446;SDS011;717;51.522;7.266;2023-09-19T00:26:14;4.30;;;1.35;;
1446;SDS011;717;51.522;7.266;2023-09-19T00:28:47;4.43;;;1.73;;
1446;SDS011;717;51.522;7.266;2023-09-19T00:31:17;5.80;;;1.58;;
1446;SDS011;717;51.522;7.266;2023-09-19T00:33:53;5.78;;;1.40;;
1446;SDS011;717;51.522;7.266;2023-09-19T00:36:24;4.95;;;1.23;;
1446;SDS011;717;51.522;7.266;2023-09-19T00:38:55;4.90;;;1.50;;
1446;SDS011;717;51.522;7.266;2023-09-19T00:41:28;6.10;;;1.42;;
1446;SDS011;717;51.522;7.266;2023-09-19T00:43:58;6.70;;;1.75;;
1446;SDS011;717;51.522;7.266;2023-09-19T00:46:30;4.85;;;1.70;;
1446;SDS011;717;51.522;7.266;2023-09-19T00:49:01;7.22;;;1.60;;
1446;SDS011;717;51.522;7.266;2023-09-19T00:51:31;6.72;;;1.50;;
1446;SDS011;717;51.522;7.266;2023-09-19T00:54:02;4.80;;;1.63;;
1446;SDS011;717;51.522;7.266;2023-09-19T00:56:36;3.00;;;1.25;;
1446;SDS011;717;51.522;7.266;2023-09-19T00:59:08;5.15;;;1.42;;
1446;SDS011;717;51.522;7.266;2023-09-19T01:01:38;5.13;;;1.27;;
1446;SDS011;717;51.522;7.266;2023-09-19T01:04:08;7.53;;;1.83;;
1446;SDS011;717;51.522;7.266;2023-09-19T01:06:39;4.75;;;1.42;;
1446;SDS011;717;51.522;7.266;2023-09-19T01:09:10;6.07;;;1.45;;
1446;SDS011;717;51.522;7.266;2023-09-19T01:11:45;7.35;;;1.48;;
1446;SDS011;717;51.522;7.266;2023-09-19T01:14:20;6.25;;;1.52;;
1446;SDS011;717;51.522;7.266;2023-09-19T01:17:05;5.07;;;1.35;;
1446;SDS011;717;51.522;7.266;2023-09-19T01:22:42;4.15;;;1.30;;
1446;SDS011;717;51.522;7.266;2023-09-19T01:25:36;5.75;;;1.40;;
1446;SDS011;717;51.522;7.266;2023-09-19T01:28:29;5.45;;;1.40;;
1446;SDS011;717;51.522;7.266;2023-09-19T01:31:06;5.47;;;1.38;;
1446;SDS011;717;51.522;7.266;2023-09-19T01:36:33;9.48;;;1.48;;
1446;SDS011;717;51.522;7.266;2023-09-19T01:39:06;5.95;;;1.52;;
1446;SDS011;717;51.522;7.266;2023-09-19T01:44:38;5.97;;;1.33;;
1446;SDS011;717;51.522;7.266;2023-09-19T01:47:23;3.72;;;1.50;;
1446;SDS011;717;51.522;7.266;2023-09-19T01:49:59;6.75;;;1.40;;
1446;SDS011;717;51.522;7.266;2023-09-19T01:52:42;5.35;;;1.80;;
1446;SDS011;717;51.522;7.266;2023-09-19T01:55:18;5.75;;;1.40;;
1446;SDS011;717;51.522;7.266;2023-09-19T01:57:52;4.15;;;1.40;;
1446;SDS011;717;51.522;7.266;2023-09-19T02:00:31;6.88;;;1.73;;
1446;SDS011;717;51.522;7.266;2023-09-19T02:03:06;6.90;;;1.98;;
1446;SDS011;717;51.522;7.266;2023-09-19T02:05:37;7.47;;;1.35;;
1446;SDS011;717;51.522;7.266;2023-09-19T02:08:09;3.97;;;1.33;;
1446;SDS011;717;51.522;7.266;2023-09-19T02:10:39;6.90;;;1.85;;
1446;SDS011;717;51.522;7.266;2023-09-19T02:13:09;4.47;;;1.35;;
1446;SDS011;717;51.522;7.266;2023-09-19T02:15:41;9.80;;;1.60;;
1446;SDS011;717;51.522;7.266;2023-09-19T02:18:14;4.97;;;1.60;;
1446;SDS011;717;51.522;7.266;2023-09-19T02:20:44;6.85;;;1.40;;
1446;SDS011;717;51.522;7.266;2023-09-19T02:23:15;6.85;;;2.45;;
1446;SDS011;717;51.522;7.266;2023-09-19T02:25:51;7.88;;;1.70;;
1446;SDS011;717;51.522;7.266;2023-09-19T02:28:21;5.03;;;1.42;;
1446;SDS011;717;51.522;7.266;2023-09-19T02:30:56;6.45;;;1.50;;
1446;SDS011;717;51.522;7.266;2023-09-19T02:33:29;11.20;;;1.40;;
1446;SDS011;717;51.522;7.266;2023-09-19T02:36:01;3.85;;;1.50;;
1446;SDS011;717;51.522;7.266;2023-09-19T02:38:32;4.93;;;2.00;;
1446;SDS011;717;51.522;7.266;2023-09-19T02:41:03;6.68;;;1.50;;
1446;SDS011;717;51.522;7.266;2023-09-19T02:43:34;4.00;;;1.60;;
1446;SDS011;717;51.522;7.266;2023-09-19T02:46:04;6.75;;;1.58;;
1446;SDS011;717;51.522;7.266;2023-09-19T02:48:37;4.78;;;1.40;;
1446;SDS011;717;51.522;7.266;2023-09-19T02:51:08;8.77;;;1.70;;
1446;SDS011;717;51.522;7.266;2023-09-19T02:53:38;6.07;;;1.60;;
1446;SDS011;717;51.522;7.266;2023-09-19T02:56:09;5.95;;;1.45;;
1446;SDS011;717;51.522;7.266;2023-09-19T02:58:41;5.50;;;1.42;;
1446;SDS011;717;51.522;7.266;2023-09-19T03:01:11;5.78;;;1.75;;
1446;SDS011;717;51.522;7.266;2023-09-19T03:03:44;7.13;;;1.65;;
1446;SDS011;717;51.522;7.266;2023-09-19T03:06:14;6.25;;;1.60;;
1446;SDS011;717;51.522;7.266;2023-09-19T03:08:46;5.47;;;1.38;;
1446;SDS011;717;51.522;7.266;2023-09-19T03:11:20;6.93;;;1.60;;
1446;SDS011;717;51.522;7.266;2023-09-19T03:13:55;7.90;;;1.38;;
1446;SDS011;717;51.522;7.266;2023-09-19T03:16:26;9.13;;;1.98;;
1446;SDS011;717;51.522;7.266;2023-09-19T03:19:01;5.55;;;1.48;;
1446;SDS011;717;51.522;7.266;2023-09-19T03:21:32;5.22;;;1.20;;
1446;SDS011;717;51.522;7.266;2023-09-19T03:24:03;6.93;;;1.77;;
1446;SDS011;717;51.522;7.266;2023-09-19T03:26:33;6.85;;;1.88;;
1446;SDS011;717;51.522;7.266;2023-09-19T03:29:04;6.63;;;1.52;;
1446;SDS011;717;51.522;7.266;2023-09-19T03:31:37;5.60;;;1.25;;
1446;SDS011;717;51.522;7.266;2023-09-19T03:34:10;6.93;;;1.85;;
1446;SDS011;717;51.522;7.266;2023-09-19T03:36:41;4.07;;;1.20;;
1446;SDS011;717;51.522;7.266;2023-09-19T03:39:11;7.38;;;1.55;;
1446;SDS011;717;51.522;7.266;2023-09-19T03:41:42;5.53;;;1.50;;
1446;SDS011;717;51.522;7.266;2023-09-19T03:44:12;5.43;;;1.25;;
1446;SDS011;717;51.522;7.266;2023-09-19T03:46:42;3.88;;;1.25;;
1446;SDS011;717;51.522;7.266;2023-09-19T03:49:15;5.32;;;1.70;;
1446;SDS011;717;51.522;7.266;2023-09-19T03:51:45;6.63;;;1.27;;
1446;SDS011;717;51.522;7.266;2023-09-19T03:54:16;5.60;;;1.50;;
1446;SDS011;717;51.522;7.266;2023-09-19T03:56:46;5.65;;;1.25;;
1446;SDS011;717;51.522;7.266;2023-09-19T03:59:16;4.72;;;1.40;;
1446;SDS011;717;51.522;7.266;2023-09-19T04:01:48;6.53;;;1.50;;
1446;SDS011;717;51.522;7.266;2023-09-19T04:04:25;5.10;;;1.50;;
1446;SDS011;717;51.522;7.266;2023-09-19T04:06:56;5.28;;;1.25;;
1446;SDS011;717;51.522;7.266;2023-09-19T04:09:26;4.53;;;1.30;;
1446;SDS011;717;51.522;7.266;2023-09-19T04:11:57;5.57;;;1.40;;
1446;SDS011;717;51.522;7.266;2023-09-19T04:14:27;5.82;;;1.27;;
1446;SDS011;717;51.522;7.266;2023-09-19T04:16:58;5.68;;;1.35;;
1446;SDS011;717;51.522;7.266;2023-09-19T04:19:30;9.57;;;2.35;;
1446;SDS011;717;51.522;7.266;2023-09-19T04:22:01;5.85;;;1.77;;
1446;SDS011;717;51.522;7.266;2023-09-19T04:24:32;6.75;;;1.30;;
1446;SDS011;717;51.522;7.266;2023-09-19T04:27:02;5.10;;;1.40;;
1446;SDS011;717;51.522;7.266;2023-09-19T04:29:33;8.82;;;1.88;;
1446;SDS011;717;51.522;7.266;2023-09-19T04:32:04;8.10;;;1.58;;
1446;SDS011;717;51.522;7.266;2023-09-19T04:34:39;5.28;;;1.25;;
1446;SDS011;717;51.522;7.266;2023-09-19T04:37:09;6.15;;;1.25;;
1446;SDS011;717;51.522;7.266;2023-09-19T04:39:41;5.05;;;1.08;;
1446;SDS011;717;51.522;7.266;2023-09-19T04:42:12;6.75;;;1.17;;
1446;SDS011;717;51.522;7.266;2023-09-19T04:44:44;6.18;;;1.73;;
1446;SDS011;717;51.522;7.266;2023-09-19T04:47:16;4.47;;;1.30;;
1446;SDS011;717;51.522;7.266;2023-09-19T04:49:48;4.63;;;0.90;;
1446;SDS011;717;51.522;7.266;2023-09-19T04:52:18;6.38;;;1.30;;
1446;SDS011;717;51.522;7.266;2023-09-19T04:54:49;5.78;;;1.35;;
1446;SDS011;717;51.522;7.266;2023-09-19T04:57:19;6.25;;;1.30;;
1446;SDS011;717;51.522;7.266;2023-09-19T04:59:49;4.55;;;1.05;;
1446;SDS011;717;51.522;7.266;2023-09-19T05:02:20;9.13;;;1.60;;
1446;SDS011;717;51.522;7.266;2023-09-19T05:04:53;5.10;;;1.08;;
1446;SDS011;717;51.522;7.266;2023-09-19T05:07:26;5.43;;;1.45;;
1446;SDS011;717;51.522;7.266;2023-09-19T05:09:56;4.80;;;1.40;;
1446;SDS011;717;51.522;7.266;2023-09-19T05:12:26;6.15;;;1.88;;
1446;SDS011;717;51.522;7.266;2023-09-19T05:14:56;6.88;;;1.65;;
1446;SDS011;717;51.522;7.266;2023-09-19T05:17:26;7.05;;;1.23;;
1446;SDS011;717;51.522;7.266;2023-09-19T05:19:59;3.55;;;1.30;;
1446;SDS011;717;51.522;7.266;2023-09-19T05:22:32;3.38;;;1.25;;
1446;SDS011;717;51.522;7.266;2023-09-19T05:25:15;7.38;;;1.85;;
1446;SDS011;717;51.522;7.266;2023-09-19T05:27:47;6.93;;;1.35;;
1446;SDS011;717;51.522;7.266;2023-09-19T05:30:19;6.18;;;1.40;;
1446;SDS011;717;51.522;7.266;2023-09-19T05:32:49;5.45;;;1.95;;
1446;SDS011;717;51.522;7.266;2023-09-19T05:35:22;7.93;;;1.65;;
1446;SDS011;717;51.522;7.266;2023-09-19T05:37:53;3.88;;;1.30;;
1446;SDS011;717;51.522;7.266;2023-09-19T05:40:24;5.97;;;1.70;;
1446;SDS011;717;51.522;7.266;2023-09-19T05:42:55;7.63;;;1.90;;
1446;SDS011;717;51.522;7.266;2023-09-19T05:45:25;4.03;;;1.20;;
1446;SDS011;717;51.522;7.266;2023-09-19T05:47:55;6.75;;;1.70;;
1446;SDS011;717;51.522;7.266;2023-09-19T05:50:34;5.43;;;1.67;;
1446;SDS011;717;51.522;7.266;2023-09-19T05:53:05;7.75;;;1.15;;
1446;SDS011;717;51.522;7.266;2023-09-19T05:55:38;5.22;;;1.58;;
1446;SDS011;717;51.522;7.266;2023-09-19T05:58:08;10.40;;;1.55;;
1446;SDS011;717;51.522;7.266;2023-09-19T06:00:40;4.70;;;1.67;;
1446;SDS011;717;51.522;7.266;2023-09-19T06:03:11;3.90;;;1.38;;
1446;SDS011;717;51.522;7.266;2023-09-19T06:05:44;4.82;;;1.50;;
1446;SDS011;717;51.522;7.266;2023-09-19T06:08:16;6.82;;;1.63;;
1446;SDS011;717;51.522;7.266;2023-09-19T06:10:46;7.50;;;1.50;;
1446;SDS011;717;51.522;7.266;2023-09-19T06:13:18;6.90;;;1.30;;
1446;SDS011;717;51.522;7.266;2023-09-19T06:15:50;5.93;;;1.52;;
1446;SDS011;717;51.522;7.266;2023-09-19T06:18:20;9.07;;;1.70;;
1446;SDS011;717;51.522;7.266;2023-09-19T06:20:55;6.25;;;1.80;;
1446;SDS011;717;51.522;7.266;2023-09-19T06:23:26;4.20;;;1.38;;
1446;SDS011;717;51.522;7.266;2023-09-19T06:25:56;8.02;;;1.65;;
1446;SDS011;717;51.522;7.266;2023-09-19T06:28:26;4.68;;;1.27;;
1446;SDS011;717;51.522;7.266;2023-09-19T06:30:57;6.10;;;1.52;;
1446;SDS011;717;51.522;7.266;2023-09-19T06:33:27;5.50;;;1.55;;
1446;SDS011;717;51.522;7.266;2023-09-19T06:36:00;6.88;;;1.50;;
1446;SDS011;717;51.522;7.266;2023-09-19T06:38:32;6.72;;;2.05;;
1446;SDS011;717;51.522;7.266;2023-09-19T06:41:03;6.72;;;1.30;;
1446;SDS011;717;51.522;7.266;2023-09-19T06:43:35;6.15;;;1.60;;
1446;SDS011;717;51.522;7.266;2023-09-19T06:46:06;7.38;;;1.60;;
1446;SDS011;717;51.522;7.266;2023-09-19T06:48:36;6.60;;;1.50;;
1446;SDS011;717;51.522;7.266;2023-09-19T06:51:09;6.22;;;1.45;;
1446;SDS011;717;51.522;7.266;2023-09-19T06:53:42;9.68;;;1.73;;
1446;SDS011;717;51.522;7.266;2023-09-19T06:56:12;4.57;;;1.48;;
1446;SDS011;717;51.522;7.266;2023-09-19T06:58:42;6.68;;;1.90;;
1446;SDS011;717;51.522;7.266;2023-09-19T07:01:12;4.40;;;1.52;;
1446;SDS011;717;51.522;7.266;2023-09-19T07:03:43;6.53;;;1.35;;
1446;SDS011;717;51.522;7.266;2023-09-19T07:06:16;4.70;;;1.30;;
1446;SDS011;717;51.522;7.266;2023-09-19T07:08:46;6.90;;;1.75;;
1446;SDS011;717;51.522;7.266;2023-09-19T07:11:17;6.63;;;1.60;;
1446;SDS011;717;51.522;7.266;2023-09-19T07:13:48;7.05;;;1.60;;
1446;SDS011;717;51.522;7.266;2023-09-19T07:16:18;5.82;;;1.38;;
1446;SDS011;717;51.522;7.266;2023-09-19T07:18:57;8.73;;;1.42;;
1446;SDS011;717;51.522;7.266;2023-09-19T07:21:31;4.55;;;1.40;;
1446;SDS011;717;51.522;7.266;2023-09-19T07:24:02;5.50;;;1.83;;
1446;SDS011;717;51.522;7.266;2023-09-19T07:26:32;7.90;;;1.65;;
1446;SDS011;717;51.522;7.266;2023-09-19T07:29:02;4.95;;;1.48;;
1446;SDS011;717;51.522;7.266;2023-09-19T07:31:33;6.30;;;1.85;;
1446;SDS011;717;51.522;7.266;2023-09-19T07:34:03;7.13;;;1.33;;
1446;SDS011;717;51.522;7.266;2023-09-19T07:36:37;7.05;;;1.85;;
1446;SDS011;717;51.522;7.266;2023-09-19T07:39:08;9.13;;;2.13;;
1446;SDS011;717;51.522;7.266;2023-09-19T07:41:48;7.32;;;1.65;;
1446;SDS011;717;51.522;7.266;2023-09-19T07:44:18;9.18;;;1.40;;
1446;SDS011;717;51.522;7.266;2023-09-19T07:46:48;8.65;;;1.52;;
1446;SDS011;717;51.522;7.266;2023-09-19T07:49:18;8.00;;;1.45;;
1446;SDS011;717;51.522;7.266;2023-09-19T07:51:52;7.47;;;1.90;;
1446;SDS011;717;51.522;7.266;2023-09-19T07:54:24;7.55;;;1.85;;
1446;SDS011;717;51.522;7.266;2023-09-19T07:56:57;4.35;;;1.42;;
1446;SDS011;717;51.522;7.266;2023-09-19T07:59:27;8.13;;;1.92;;
1446;SDS011;717;51.522;7.266;2023-09-19T08:01:57;6.68;;;1.80;;
1446;SDS011;717;51.522;7.266;2023-09-19T08:04:27;4.88;;;1.90;;
1446;SDS011;717;51.522;7.266;2023-09-19T08:07:01;7.93;;;1.55;;
1446;SDS011;717;51.522;7.266;2023-09-19T08:09:32;5.45;;;1.50;;
1446;SDS011;717;51.522;7.266;2023-09-19T08:12:05;8.68;;;1.70;;
1446;SDS011;717;51.522;7.266;2023-09-19T08:14:37;8.38;;;1.48;;
1446;SDS011;717;51.522;7.266;2023-09-19T08:17:08;5.45;;;1.40;;
1446;SDS011;717;51.522;7.266;2023-09-19T08:19:39;8.30;;;1.48;;
1446;SDS011;717;51.522;7.266;2023-09-19T08:22:14;5.95;;;1.30;;
1446;SDS011;717;51.522;7.266;2023-09-19T08:24:44;6.95;;;1.70;;
1446;SDS011;717;51.522;7.266;2023-09-19T08:27:14;6.82;;;1.40;;
1446;SDS011;717;51.522;7.266;2023-09-19T08:29:46;13.00;;;2.20;;
1446;SDS011;717;51.522;7.266;2023-09-19T08:32:18;7.80;;;1.45;;
1446;SDS011;717;51.522;7.266;2023-09-19T08:34:51;6.53;;;1.55;;
1446;SDS011;717;51.522;7.266;2023-09-19T08:37:24;7.60;;;1.77;;
1446;SDS011;717;51.522;7.266;2023-09-19T08:39:54;7.13;;;1.60;;
1446;SDS011;717;51.522;7.266;2023-09-19T08:42:24;5.18;;;1.80;;
1446;SDS011;717;51.522;7.266;2023-09-19T08:44:54;8.27;;;1.88;;
1446;SDS011;717;51.522;7.266;2023-09-19T08:47:30;5.60;;;1.98;;
1446;SDS011;717;51.522;7.266;2023-09-19T08:50:07;6.55;;;1.88;;
1446;SDS011;717;51.522;7.266;2023-09-19T08:52:48;8.70;;;2.28;;
1446;SDS011;717;51.522;7.266;2023-09-19T08:55:23;7.43;;;1.70;;
1446;SDS011;717;51.522;7.266;2023-09-19T08:57:59;7.85;;;1.38;;
1446;SDS011;717;51.522;7.266;2023-09-19T09:00:31;7.35;;;1.88;;
1446;SDS011;717;51.522;7.266;2023-09-19T09:03:01;7.57;;;2.13;;
1446;SDS011;717;51.522;7.266;2023-09-19T09:05:34;6.45;;;1.98;;
1446;SDS011;717;51.522;7.266;2023-09-19T09:08:10;5.25;;;1.17;;
1446;SDS011;717;51.522;7.266;2023-09-19T09:10:40;7.93;;;1.85;;
1446;SDS011;717;51.522;7.266;2023-09-19T09:13:12;10.90;;;2.03;;
1446;SDS011;717;51.522;7.266;2023-09-19T09:15:44;6.20;;;1.30;;
1446;SDS011;717;51.522;7.266;2023-09-19T09:18:14;7.82;;;1.63;;
1446;SDS011;717;51.522;7.266;2023-09-19T09:20:45;9.20;;;1.92;;
1446;SDS011;717;51.522;7.266;2023-09-19T09:23:18;4.57;;;1.30;;
1446;SDS011;717;51.522;7.266;2023-09-19T09:25:49;5.57;;;1.33;;
1446;SDS011;717;51.522;7.266;2023-09-19T09:28:23;5.10;;;1.38;;
1446;SDS011;717;51.522;7.266;2023-09-19T09:30:55;6.20;;;1.40;;
1446;SDS011;717;51.522;7.266;2023-09-19T09:33:25;6.35;;;1.63;;
1446;SDS011;717;51.522;7.266;2023-09-19T09:35:59;9.07;;;2.40;;
1446;SDS011;717;51.522;7.266;2023-09-19T09:38:45;4.72;;;1.65;;
1446;SDS011;717;51.522;7.266;2023-09-19T09:41:16;6.95;;;1.88;;
1446;SDS011;717;51.522;7.266;2023-09-19T09:43:54;4.97;;;1.80;;
1446;SDS011;717;51.522;7.266;2023-09-19T09:46:26;8.65;;;2.00;;
1446;SDS011;717;51.522;7.266;2023-09-19T09:49:11;6.03;;;1.52;;
1446;SDS011;717;51.522;7.266;2023-09-19T09:52:00;4.03;;;1.40;;
1446;SDS011;717;51.522;7.266;2023-09-19T09:54:40;7.95;;;1.75;;
1446;SDS011;717;51.522;7.266;2023-09-19T09:57:32;8.75;;;1.90;;
1446;SDS011;717;51.522;7.266;2023-09-19T10:00:03;6.50;;;1.90;;
1446;SDS011;717;51.522;7.266;2023-09-19T10:02:47;8.27;;;1.83;;
1446;SDS011;717;51.522;7.266;2023-09-19T10:05:18;8.07;;;1.77;;
1446;SDS011;717;51.522;7.266;2023-09-19T10:07:55;5.15;;;1.60;;
1446;SDS011;717;51.522;7.266;2023-09-19T10:10:38;8.63;;;1.70;;
1446;SDS011;717;51.522;7.266;2023-09-19T10:13:21;7.10;;;1.65;;
1446;SDS011;717;51.522;7.266;2023-09-19T10:15:56;5.60;;;1.60;;
1446;SDS011;717;51.522;7.266;2023-09-19T10:18:37;7.55;;;2.17;;
1446;SDS011;717;51.522;7.266;2023-09-19T10:21:10;5.38;;;1.60;;
1446;SDS011;717;51.522;7.266;2023-09-19T10:23:41;5.88;;;2.15;;
1446;SDS011;717;51.522;7.266;2023-09-19T10:26:14;4.60;;;1.63;;
1446;SDS011;717;51.522;7.266;2023-09-19T10:28:47;5.32;;;1.80;;
1446;SDS011;717;51.522;7.266;2023-09-19T10:31:21;5.18;;;1.63;;
1446;SDS011;717;51.522;7.266;2023-09-19T10:33:53;5.03;;;1.88;;
1446;SDS011;717;51.522;7.266;2023-09-19T10:36:24;7.18;;;1.77;;
1446;SDS011;717;51.522;7.266;2023-09-19T10:38:55;7.50;;;1.90;;
1446;SDS011;717;51.522;7.266;2023-09-19T10:41:31;8.07;;;2.10;;
1446;SDS011;717;51.522;7.266;2023-09-19T10:44:04;10.63;;;2.00;;
1446;SDS011;717;51.522;7.266;2023-09-19T10:46:36;6.30;;;1.30;;
1446;SDS011;717;51.522;7.266;2023-09-19T10:49:07;5.50;;;1.58;;
1446;SDS011;717;51.522;7.266;2023-09-19T10:51:41;7.03;;;2.20;;
1446;SDS011;717;51.522;7.266;2023-09-19T10:54:15;5.25;;;1.58;;
1446;SDS011;717;51.522;7.266;2023-09-19T10:56:51;6.40;;;1.83;;
1446;SDS011;717;51.522;7.266;2023-09-19T10:59:25;6.00;;;1.60;;
1446;SDS011;717;51.522;7.266;2023-09-19T11:02:15;4.25;;;1.70;;
1446;SDS011;717;51.522;7.266;2023-09-19T11:04:46;4.93;;;1.60;;
1446;SDS011;717;51.522;7.266;2023-09-19T11:07:17;10.40;;;2.17;;
1446;SDS011;717;51.522;7.266;2023-09-19T11:09:48;9.00;;;1.83;;
1446;SDS011;717;51.522;7.266;2023-09-19T11:24:27;7.40;;;2.50;;
1446;SDS011;717;51.522;7.266;2023-09-19T11:27:09;9.45;;;1.30;;
1446;SDS011;717;51.522;7.266;2023-09-19T11:29:42;5.30;;;1.08;;
1446;SDS011;717;51.522;7.266;2023-09-19T11:32:13;3.75;;;1.42;;
1446;SDS011;717;51.522;7.266;2023-09-19T11:34:46;6.55;;;2.00;;
1446;SDS011;717;51.522;7.266;2023-09-19T11:40:29;5.05;;;1.75;;
1446;SDS011;717;51.522;7.266;2023-09-19T11:43:00;5.47;;;1.85;;
1446;SDS011;717;51.522;7.266;2023-09-19T11:46:11;4.40;;;1.40;;
1446;SDS011;717;51.522;7.266;2023-09-19T11:48:43;4.43;;;1.30;;
1446;SDS011;717;51.522;7.266;2023-09-19T11:51:15;5.28;;;1.40;;
1446;SDS011;717;51.522;7.266;2023-09-19T11:53:50;4.50;;;1.60;;
1446;SDS011;717;51.522;7.266;2023-09-19T11:56:22;6.65;;;1.85;;
1446;SDS011;717;51.522;7.266;2023-09-19T11:58:55;4.40;;;1.50;;
1446;SDS011;717;51.522;7.266;2023-09-19T12:01:31;5.53;;;1.20;;
1446;SDS011;717;51.522;7.266;2023-09-19T12:04:02;5.55;;;1.90;;
1446;SDS011;717;51.522;7.266;2023-09-19T12:06:33;4.07;;;1.50;;
1446;SDS011;717;51.522;7.266;2023-09-19T12:09:12;4.20;;;1.35;;
1446;SDS011;717;51.522;7.266;2023-09-19T12:11:43;4.53;;;1.58;;
1446;SDS011;717;51.522;7.266;2023-09-19T12:14:21;4.80;;;1.63;;
1446;SDS011;717;51.522;7.266;2023-09-19T12:16:56;6.75;;;1.67;;
1446;SDS011;717;51.522;7.266;2023-09-19T12:19:28;5.55;;;1.70;;
1446;SDS011;717;51.522;7.266;2023-09-19T12:21:59;3.13;;;1.20;;
1446;SDS011;717;51.522;7.266;2023-09-19T12:24:32;3.60;;;1.60;;
1446;SDS011;717;51.522;7.266;2023-09-19T12:27:05;4.60;;;1.38;;
1446;SDS011;717;51.522;7.266;2023-09-19T12:29:42;6.30;;;1.50;;
1446;SDS011;717;51.522;7.266;2023-09-19T12:32:15;4.15;;;1.60;;
1446;SDS011;717;51.522;7.266;2023-09-19T12:34:50;7.38;;;1.60;;
1446;SDS011;717;51.522;7.266;2023-09-19T12:37:21;5.00;;;1.52;;
1446;SDS011;717;51.522;7.266;2023-09-19T12:40:03;6.72;;;1.95;;
1446;SDS011;717;51.522;7.266;2023-09-19T12:42:42;10.02;;;1.58;;
1446;SDS011;717;51.522;7.266;2023-09-19T12:45:13;4.57;;;1.52;;
1446;SDS011;717;51.522;7.266;2023-09-19T12:51:02;3.80;;;1.42;;
1446;SDS011;717;51.522;7.266;2023-09-19T12:53:36;4.90;;;1.25;;
1446;SDS011;717;51.522;7.266;2023-09-19T12:56:10;4.88;;;1.25;;
1446;SDS011;717;51.522;7.266;2023-09-19T12:58:49;6.63;;;1.40;;
1446;SDS011;717;51.522;7.266;2023-09-19T13:01:21;4.28;;;1.60;;
1446;SDS011;717;51.522;7.266;2023-09-19T13:04:10;5.50;;;1.17;;
1446;SDS011;717;51.522;7.266;2023-09-19T13:06:48;6.07;;;1.63;;
1446;SDS011;717;51.522;7.266;2023-09-19T13:09:20;3.83;;;1.35;;
1446;SDS011;717;51.522;7.266;2023-09-19T13:11:58;4.05;;;1.20;;
1446;SDS011;717;51.522;7.266;2023-09-19T13:14:29;3.28;;;1.40;;
1446;SDS011;717;51.522;7.266;2023-09-19T13:17:07;4.93;;;1.38;;
1446;SDS011;717;51.522;7.266;2023-09-19T13:19:43;4.85;;;1.30;;
1446;SDS011;717;51.522;7.266;2023-09-19T13:25:13;5.13;;;1.27;;
1446;SDS011;717;51.522;7.266;2023-09-19T13:27:46;2.83;;;1.10;;
1446;SDS011;717;51.522;7.266;2023-09-19T13:30:19;3.95;;;1.23;;
1446;SDS011;717;51.522;7.266;2023-09-19T13:32:50;4.45;;;1.50;;
1446;SDS011;717;51.522;7.266;2023-09-19T13:35:20;8.27;;;1.73;;
1446;SDS011;717;51.522;7.266;2023-09-19T13:37:53;6.78;;;1.58;;
1446;SDS011;717;51.522;7.266;2023-09-19T13:40:23;6.20;;;1.20;;
1446;SDS011;717;51.522;7.266;2023-09-19T13:43:01;3.08;;;1.25;;
1446;SDS011;717;51.522;7.266;2023-09-19T13:45:33;2.60;;;1.10;;
1446;SDS011;717;51.522;7.266;2023-09-19T13:48:04;2.28;;;1.08;;
1446;SDS011;717;51.522;7.266;2023-09-19T13:50:34;2.55;;;0.73;;
1446;SDS011;717;51.522;7.266;2023-09-19T13:53:11;3.80;;;1.00;;
1446;SDS011;717;51.522;7.266;2023-09-19T13:55:41;3.65;;;1.20;;
1446;SDS011;717;51.522;7.266;2023-09-19T13:58:12;2.83;;;0.90;;
1446;SDS011;717;51.522;7.266;2023-09-19T14:00:43;4.13;;;1.15;;
1446;SDS011;717;51.522;7.266;2023-09-19T14:03:13;3.78;;;0.80;;
1446;SDS011;717;51.522;7.266;2023-09-19T14:05:44;3.47;;;0.80;;
1446;SDS011;717;51.522;7.266;2023-09-19T14:08:17;5.13;;;1.00;;
1446;SDS011;717;51.522;7.266;2023-09-19T14:10:48;4.38;;;1.02;;
1446;SDS011;717;51.522;7.266;2023-09-19T14:13:20;2.95;;;1.00;;
1446;SDS011;717;51.522;7.266;2023-09-19T14:15:52;3.22;;;1.00;;
1446;SDS011;717;51.522;7.266;2023-09-19T14:18:22;2.00;;;0.77;;
1446;SDS011;717;51.522;7.266;2023-09-19T14:20:53;3.65;;;0.80;;
1446;SDS011;717;51.522;7.266;2023-09-19T14:23:25;2.65;;;0.90;;
1446;SDS011;717;51.522;7.266;2023-09-19T14:25:55;2.70;;;0.90;;
1446;SDS011;717;51.522;7.266;2023-09-19T14:28:26;1.92;;;0.60;;
1446;SDS011;717;51.522;7.266;2023-09-19T14:30:56;3.40;;;1.27;;
1446;SDS011;717;51.522;7.266;2023-09-19T14:33:29;3.38;;;1.05;;
1446;SDS011;717;51.522;7.266;2023-09-19T14:36:02;1.95;;;0.50;;
1446;SDS011;717;51.522;7.266;2023-09-19T14:38:36;1.83;;;0.65;;
1446;SDS011;717;51.522;7.266;2023-09-19T14:41:07;3.83;;;1.00;;
1446;SDS011;717;51.522;7.266;2023-09-19T14:43:38;2.80;;;0.73;;
1446;SDS011;717;51.522;7.266;2023-09-19T14:46:08;2.95;;;0.90;;
1446;SDS011;717;51.522;7.266;2023-09-19T14:48:38;2.60;;;0.90;;
1446;SDS011;717;51.522;7.266;2023-09-19T14:51:09;2.60;;;0.80;;
1446;SDS011;717;51.522;7.266;2023-09-19T14:53:41;3.42;;;1.10;;
1446;SDS011;717;51.522;7.266;2023-09-19T14:56:12;6.15;;;1.10;;
1446;SDS011;717;51.522;7.266;2023-09-19T14:58:46;3.10;;;0.75;;
1446;SDS011;717;51.522;7.266;2023-09-19T15:01:17;2.08;;;0.63;;
1446;SDS011;717;51.522;7.266;2023-09-19T15:03:48;2.45;;;0.68;;
1446;SDS011;717;51.522;7.266;2023-09-19T15:06:21;2.72;;;0.70;;
1446;SDS011;717;51.522;7.266;2023-09-19T15:08:55;2.72;;;0.50;;
1446;SDS011;717;51.522;7.266;2023-09-19T15:11:26;5.00;;;0.60;;
1446;SDS011;717;51.522;7.266;2023-09-19T15:13:56;2.83;;;0.60;;
1446;SDS011;717;51.522;7.266;2023-09-19T15:16:26;2.38;;;0.68;;
1446;SDS011;717;51.522;7.266;2023-09-19T15:18:56;1.35;;;0.52;;
1446;SDS011;717;51.522;7.266;2023-09-19T15:21:26;1.67;;;0.63;;
1446;SDS011;717;51.522;7.266;2023-09-19T15:23:59;2.15;;;0.63;;
1446;SDS011;717;51.522;7.266;2023-09-19T15:26:29;2.13;;;0.85;;
1446;SDS011;717;51.522;7.266;2023-09-19T15:28:59;1.92;;;0.70;;
1446;SDS011;717;51.522;7.266;2023-09-19T15:31:30;5.43;;;0.70;;
1446;SDS011;717;51.522;7.266;2023-09-19T15:34:00;3.10;;;0.80;;
1446;SDS011;717;51.522;7.266;2023-09-19T15:36:30;1.90;;;0.65;;
1446;SDS011;717;51.522;7.266;2023-09-19T15:39:03;2.05;;;0.65;;
1446;SDS011;717;51.522;7.266;2023-09-19T15:41:38;2.08;;;0.65;;
1446;SDS011;717;51.522;7.266;2023-09-19T15:44:12;4.55;;;0.75;;
1446;SDS011;717;51.522;7.266;2023-09-19T15:46:45;2.92;;;0.90;;
1446;SDS011;717;51.522;7.266;2023-09-19T15:49:16;1.80;;;0.65;;
1446;SDS011;717;51.522;7.266;2023-09-19T15:51:46;2.47;;;0.65;;
1446;SDS011;717;51.522;7.266;2023-09-19T15:54:19;2.35;;;0.65;;
1446;SDS011;717;51.522;7.266;2023-09-19T15:56:49;2.72;;;0.60;;
1446;SDS011;717;51.522;7.266;2023-09-19T15:59:19;3.10;;;0.50;;
1446;SDS011;717;51.522;7.266;2023-09-19T16:01:49;2.47;;;0.60;;
1446;SDS011;717;51.522;7.266;2023-09-19T16:04:19;3.30;;;0.82;;
1446;SDS011;717;51.522;7.266;2023-09-19T16:06:49;2.20;;;0.65;;
1446;SDS011;717;51.522;7.266;2023-09-19T16:09:23;2.88;;;0.60;;
1446;SDS011;717;51.522;7.266;2023-09-19T16:11:53;2.38;;;0.47;;
1446;SDS011;717;51.522;7.266;2023-09-19T16:14:23;1.42;;;0.60;;
1446;SDS011;717;51.522;7.266;2023-09-19T16:16:55;0.98;;;0.65;;
1446;SDS011;717;51.522;7.266;2023-09-19T16:19:26;2.58;;;0.47;;
1446;SDS011;717;51.522;7.266;2023-09-19T16:21:56;1.00;;;0.40;;
1446;SDS011;717;51.522;7.266;2023-09-19T16:24:29;2.13;;;0.45;;
1446;SDS011;717;51.522;7.266;2023-09-19T16:26:59;2.22;;;0.70;;
1446;SDS011;717;51.522;7.266;2023-09-19T16:29:30;1.98;;;0.60;;
1446;SDS011;717;51.522;7.266;2023-09-19T16:32:00;2.40;;;0.60;;
1446;SDS011;717;51.522;7.266;2023-09-19T16:34:30;1.63;;;0.43;;